Time;durP1;ratioP1;P1;durP2;ratioP2;P2;SDS_P1;SDS_P2;PMS_P1;PMS_P2;Temp;Humidity;BMP_temperature;BMP_pressure;BME280_temperature;BME280_humidity;BME280_pressure;Samples;Min_cycle;Max_cycle;Signal;HPM_P1;HPM_P2
2022/05/05 00:00:29;;;;;;;9.10;3.83;;;;;;;;;;5005191;28;20050;-65
2022/05/05 00:02:55;;;;;;;11.38;4.00;;;;;;;;;;4984744;28;20034;-65
2022/05/05 00:05:20;;;;;;;7.53;3.60;;;;;;;;;;5005561;28;20114;-66
2022/05/05 00:07:46;;;;;;;13.13;3.97;;;;;;;;;;4993746;28;20022;-65
2022/05/05 00:15:39;;;;;;;10.85;4.18;;;;;;;;;;5005525;28;20045;-65
2022/05/05 00:18:04;;;;;;;7.55;3.88;;;;;;;;;;5001736;28;20038;-66
2022/05/05 00:20:30;;;;;;;10.82;4.15;;;;;;;;;;5006471;28;20113;-65
2022/05/05 00:22:55;;;;;;;10.73;4.00;;;;;;;;;;5009166;28;20040;-65
2022/05/05 00:25:20;;;;;;;9.38;4.10;;;;;;;;;;5010778;28;20052;-64
2022/05/05 00:27:46;;;;;;;8.23;4.07;;;;;;;;;;4990241;28;20042;-65
2022/05/05 00:30:11;;;;;;;9.63;4.18;;;;;;;;;;4994739;28;20126;-65
2022/05/05 00:32:37;;;;;;;8.23;4.00;;;;;;;;;;4991836;28;20026;-65
2022/05/05 00:35:03;;;;;;;9.48;4.50;;;;;;;;;;4995704;28;20030;-66
2022/05/05 00:37:28;;;;;;;9.13;4.28;;;;;;;;;;5009748;28;20041;-65
2022/05/05 00:39:53;;;;;;;10.05;3.88;;;;;;;;;;5010626;28;20030;-65
2022/05/05 00:42:19;;;;;;;7.03;4.00;;;;;;;;;;5010749;28;20129;-65
2022/05/05 00:44:44;;;;;;;8.20;4.15;;;;;;;;;;4993295;28;20237;-65
2022/05/05 00:47:15;;;;;;;9.02;4.43;;;;;;;;;;5005404;28;20286;-65
2022/05/05 00:49:40;;;;;;;9.88;3.92;;;;;;;;;;4988775;28;20033;-65
2022/05/05 00:52:06;;;;;;;9.65;4.20;;;;;;;;;;4992098;28;20038;-64
2022/05/05 00:54:31;;;;;;;9.35;4.28;;;;;;;;;;5008261;28;20042;-65
2022/05/05 00:56:57;;;;;;;7.63;3.78;;;;;;;;;;5010737;28;20065;-65
2022/05/05 00:59:23;;;;;;;8.15;4.07;;;;;;;;;;5009644;28;20019;-65
2022/05/05 01:01:48;;;;;;;9.80;4.35;;;;;;;;;;5014599;28;20056;-64
2022/05/05 01:04:14;;;;;;;10.00;4.20;;;;;;;;;;5011754;28;20030;-64
2022/05/05 01:06:40;;;;;;;9.05;4.43;;;;;;;;;;5012921;28;20037;-64
2022/05/05 01:09:06;;;;;;;9.45;3.90;;;;;;;;;;4996313;28;20034;-66
2022/05/05 01:11:31;;;;;;;13.38;5.82;;;;;;;;;;4995348;28;20026;-65
2022/05/05 01:13:57;;;;;;;9.95;4.40;;;;;;;;;;5009962;28;20546;-64
2022/05/05 01:16:23;;;;;;;8.63;4.00;;;;;;;;;;5011762;28;20060;-65
2022/05/05 01:18:51;;;;;;;9.05;4.00;;;;;;;;;;5013071;28;20061;-64
2022/05/05 01:21:19;;;;;;;8.55;4.38;;;;;;;;;;5011290;28;20060;-65
2022/05/05 01:23:45;;;;;;;10.32;3.95;;;;;;;;;;4993198;28;20109;-65
2022/05/05 01:28:56;;;;;;;11.20;4.38;;;;;;;;;;5015563;28;20398;-65
2022/05/05 01:31:22;;;;;;;11.50;3.78;;;;;;;;;;5012256;28;20026;-64
2022/05/05 01:33:48;;;;;;;9.73;4.18;;;;;;;;;;4995169;28;20049;-66
2022/05/05 01:36:14;;;;;;;11.77;4.35;;;;;;;;;;5012252;28;20034;-65
2022/05/05 01:38:41;;;;;;;8.40;4.35;;;;;;;;;;5013660;28;20087;-67
2022/05/05 01:41:08;;;;;;;10.13;4.03;;;;;;;;;;4994653;28;20483;-65
2022/05/05 01:43:34;;;;;;;10.20;4.30;;;;;;;;;;5012138;28;20117;-64
2022/05/05 01:46:00;;;;;;;8.07;3.92;;;;;;;;;;5012084;28;20121;-66
2022/05/05 01:48:26;;;;;;;9.35;4.05;;;;;;;;;;5011754;28;20084;-65
2022/05/05 01:50:52;;;;;;;11.35;3.65;;;;;;;;;;5004399;28;20052;-65
2022/05/05 01:53:17;;;;;;;9.45;3.83;;;;;;;;;;4994331;28;20026;-65
2022/05/05 01:55:43;;;;;;;9.52;4.03;;;;;;;;;;5012362;28;20117;-64
2022/05/05 01:58:09;;;;;;;9.02;4.07;;;;;;;;;;4989230;28;20481;-65
2022/05/05 02:00:34;;;;;;;7.22;3.88;;;;;;;;;;5008273;28;20033;-65
2022/05/05 02:03:01;;;;;;;9.18;4.15;;;;;;;;;;4991140;28;20496;-66
2022/05/05 02:05:26;;;;;;;10.57;3.75;;;;;;;;;;5002458;28;20036;-65
2022/05/05 02:07:53;;;;;;;8.52;3.97;;;;;;;;;;5007368;28;20026;-66
2022/05/05 02:10:20;;;;;;;8.82;4.00;;;;;;;;;;5010443;28;20474;-65
2022/05/05 02:12:46;;;;;;;7.82;3.80;;;;;;;;;;5011980;28;20046;-65
2022/05/05 02:15:13;;;;;;;7.20;3.75;;;;;;;;;;4995472;28;20120;-66
2022/05/05 02:17:41;;;;;;;8.63;4.00;;;;;;;;;;5001405;28;20072;-65
2022/05/05 02:20:08;;;;;;;10.27;4.88;;;;;;;;;;5006788;28;20033;-65
2022/05/05 02:22:34;;;;;;;8.85;3.97;;;;;;;;;;5001131;28;20496;-65
2022/05/05 02:25:00;;;;;;;11.45;4.32;;;;;;;;;;4997581;28;20030;-66
2022/05/05 02:27:25;;;;;;;7.45;4.40;;;;;;;;;;5000046;28;20066;-66
2022/05/05 02:29:52;;;;;;;10.05;4.72;;;;;;;;;;5012899;28;20030;-65
2022/05/05 02:32:18;;;;;;;9.13;4.40;;;;;;;;;;5010383;28;20435;-65
2022/05/05 02:34:44;;;;;;;9.27;4.53;;;;;;;;;;5011249;28;20034;-65
2022/05/05 02:39:54;;;;;;;9.00;3.88;;;;;;;;;;5008641;28;20032;-65
2022/05/05 02:42:20;;;;;;;11.93;4.47;;;;;;;;;;5011717;28;20137;-65
2022/05/05 02:44:46;;;;;;;7.32;4.15;;;;;;;;;;5011726;28;20037;-66
2022/05/05 02:47:11;;;;;;;8.10;4.30;;;;;;;;;;5011241;28;20117;-65
2022/05/05 02:49:37;;;;;;;9.55;4.40;;;;;;;;;;5010742;28;20105;-64
2022/05/05 02:52:04;;;;;;;11.88;4.70;;;;;;;;;;5010814;28;20500;-65
2022/05/05 02:54:47;;;;;;;8.90;4.55;;;;;;;;;;4992113;28;20150;-64
2022/05/05 02:57:16;;;;;;;9.32;4.40;;;;;;;;;;5011946;28;20114;-65
2022/05/05 02:59:42;;;;;;;9.00;4.30;;;;;;;;;;5011838;28;20034;-66
2022/05/05 03:02:08;;;;;;;12.10;4.90;;;;;;;;;;4998861;28;20041;-65
2022/05/05 03:04:34;;;;;;;13.68;5.15;;;;;;;;;;4995920;28;20081;-65
2022/05/05 03:06:59;;;;;;;11.82;5.15;;;;;;;;;;4990651;28;20038;-65
2022/05/05 03:09:25;;;;;;;9.57;4.72;;;;;;;;;;5005150;28;20053;-65
2022/05/05 03:11:50;;;;;;;9.48;4.90;;;;;;;;;;5012507;28;20060;-65
2022/05/05 03:14:15;;;;;;;11.63;5.07;;;;;;;;;;5005094;28;20045;-65
2022/05/05 03:16:41;;;;;;;9.20;5.00;;;;;;;;;;4997171;28;20050;-66
2022/05/05 03:19:06;;;;;;;13.32;5.10;;;;;;;;;;4995129;28;20044;-64
2022/05/05 03:21:32;;;;;;;17.75;5.57;;;;;;;;;;4992739;28;20080;-64
2022/05/05 03:23:57;;;;;;;14.27;5.47;;;;;;;;;;5011573;28;20038;-65
2022/05/05 03:26:23;;;;;;;10.43;5.55;;;;;;;;;;4999685;28;20058;-64
2022/05/05 03:28:48;;;;;;;11.63;5.72;;;;;;;;;;4992259;28;20041;-66
2022/05/05 03:31:14;;;;;;;15.57;5.53;;;;;;;;;;4994323;28;20497;-69
2022/05/05 03:33:39;;;;;;;10.45;5.95;;;;;;;;;;5012007;28;20038;-68
2022/05/05 03:36:05;;;;;;;10.55;5.40;;;;;;;;;;4996486;28;20034;-68
2022/05/05 03:38:30;;;;;;;11.38;5.70;;;;;;;;;;4992519;28;20038;-69
2022/05/05 03:40:55;;;;;;;10.40;5.10;;;;;;;;;;4995779;28;20049;-69
2022/05/05 03:43:21;;;;;;;12.45;5.75;;;;;;;;;;5009821;28;20537;-68
2022/05/05 03:45:47;;;;;;;11.77;5.70;;;;;;;;;;4994042;28;20026;-69
2022/05/05 03:48:13;;;;;;;13.18;5.60;;;;;;;;;;4991252;28;20034;-68
2022/05/05 03:50:38;;;;;;;9.02;5.50;;;;;;;;;;4992250;28;20037;-68
2022/05/05 03:53:05;;;;;;;10.57;5.53;;;;;;;;;;4974162;28;20088;-69
2022/05/05 03:55:30;;;;;;;12.00;5.55;;;;;;;;;;4993324;28;20081;-70
2022/05/05 03:57:56;;;;;;;11.88;5.88;;;;;;;;;;5011664;28;20030;-69
2022/05/05 04:00:22;;;;;;;11.13;5.72;;;;;;;;;;5009979;28;20026;-68
2022/05/05 04:03:30;;;;;;;18.33;5.85;;;;;;;;;;4993298;28;20037;-69
2022/05/05 04:05:35;;;;;;;13.23;5.93;;;;;;;;;;5011447;28;20029;-69
2022/05/05 04:08:05;;;;;;;15.13;6.57;;;;;;;;;;5011210;28;20042;-68
2022/05/05 04:10:31;;;;;;;11.70;6.10;;;;;;;;;;5012031;28;20025;-69
2022/05/05 04:12:57;;;;;;;16.02;6.80;;;;;;;;;;5010843;28;20506;-68
2022/05/05 04:15:23;;;;;;;17.48;6.57;;;;;;;;;;5010873;28;20117;-69
2022/05/05 04:17:49;;;;;;;16.08;6.78;;;;;;;;;;5010109;28;20064;-69
2022/05/05 04:20:14;;;;;;;15.43;6.35;;;;;;;;;;5009429;28;20421;-68
2022/05/05 04:22:41;;;;;;;13.02;6.15;;;;;;;;;;4993587;28;20034;-68
2022/05/05 04:25:07;;;;;;;12.25;6.13;;;;;;;;;;5011131;28;20072;-69
2022/05/05 04:27:32;;;;;;;14.00;6.53;;;;;;;;;;5011568;28;20058;-67
2022/05/05 04:29:58;;;;;;;16.23;6.78;;;;;;;;;;5010878;28;20425;-68
2022/05/05 04:32:23;;;;;;;13.45;6.28;;;;;;;;;;4999401;28;20041;-68
2022/05/05 04:34:49;;;;;;;12.52;6.38;;;;;;;;;;4995475;28;20186;-69
2022/05/05 04:37:14;;;;;;;11.15;6.18;;;;;;;;;;4995127;28;20026;-68
2022/05/05 04:39:42;;;;;;;14.30;7.00;;;;;;;;;;4995539;28;20491;-69
2022/05/05 04:42:08;;;;;;;12.75;6.50;;;;;;;;;;4994610;28;20043;-69
2022/05/05 04:44:34;;;;;;;12.32;6.75;;;;;;;;;;4978826;28;20078;-68
2022/05/05 04:47:00;;;;;;;15.30;6.30;;;;;;;;;;5012859;28;20438;-68
2022/05/05 04:49:25;;;;;;;14.25;7.03;;;;;;;;;;5014276;28;20037;-69
2022/05/05 04:51:51;;;;;;;12.82;6.60;;;;;;;;;;5015270;28;20034;-70
2022/05/05 04:54:16;;;;;;;13.40;6.28;;;;;;;;;;5014236;28;20029;-69
2022/05/05 04:56:42;;;;;;;15.73;7.05;;;;;;;;;;5012644;28;20041;-73
2022/05/05 04:59:08;;;;;;;13.30;6.82;;;;;;;;;;4996612;28;20073;-70
2022/05/05 05:01:33;;;;;;;15.05;6.75;;;;;;;;;;5014786;28;20034;-69
2022/05/05 05:03:58;;;;;;;17.10;7.07;;;;;;;;;;5014672;28;20053;-71
2022/05/05 05:06:24;;;;;;;11.32;6.78;;;;;;;;;;5013971;28;20025;-68
2022/05/05 05:08:49;;;;;;;15.13;7.15;;;;;;;;;;5015628;28;20034;-72
2022/05/05 05:11:15;;;;;;;16.35;8.25;;;;;;;;;;4994249;28;20042;-68
2022/05/05 05:13:41;;;;;;;15.23;7.45;;;;;;;;;;5013974;28;20045;-68
2022/05/05 05:16:07;;;;;;;12.27;6.68;;;;;;;;;;5014028;28;20077;-68
2022/05/05 05:18:32;;;;;;;12.68;6.93;;;;;;;;;;5011430;28;20038;-69
2022/05/05 05:20:57;;;;;;;14.90;7.68;;;;;;;;;;5014906;28;20058;-70
2022/05/05 05:23:23;;;;;;;19.13;7.32;;;;;;;;;;5010908;28;20605;-68
2022/05/05 05:25:48;;;;;;;14.40;8.10;;;;;;;;;;5014144;28;20052;-68
2022/05/05 05:28:14;;;;;;;15.88;7.35;;;;;;;;;;5013598;28;20381;-68
2022/05/05 05:30:40;;;;;;;12.68;7.20;;;;;;;;;;5014879;28;20030;-68
2022/05/05 05:33:06;;;;;;;14.52;7.18;;;;;;;;;;5014183;28;20422;-67
2022/05/05 05:35:31;;;;;;;15.05;6.70;;;;;;;;;;5013805;28;20032;-69
2022/05/05 05:37:57;;;;;;;14.20;7.55;;;;;;;;;;4993842;28;20025;-68
2022/05/05 05:40:22;;;;;;;13.93;7.03;;;;;;;;;;5013617;28;20108;-69
2022/05/05 05:42:48;;;;;;;14.93;7.47;;;;;;;;;;5014204;28;20402;-68
2022/05/05 05:45:13;;;;;;;17.95;7.65;;;;;;;;;;5012358;28;20041;-68
2022/05/05 05:47:38;;;;;;;13.73;7.18;;;;;;;;;;5014162;28;20459;-68
2022/05/05 05:50:04;;;;;;;11.88;7.50;;;;;;;;;;5012533;28;20029;-68
2022/05/05 05:52:30;;;;;;;17.50;7.57;;;;;;;;;;5013327;28;20022;-69
2022/05/05 05:54:56;;;;;;;17.80;7.90;;;;;;;;;;5014085;28;20030;-68
2022/05/05 05:57:21;;;;;;;12.85;7.57;;;;;;;;;;5012984;28;20413;-68
2022/05/05 05:59:46;;;;;;;13.60;7.20;;;;;;;;;;5014039;28;20057;-71
2022/05/05 06:04:55;;;;;;;17.17;7.65;;;;;;;;;;5011879;28;20127;-68
2022/05/05 06:07:21;;;;;;;17.92;7.90;;;;;;;;;;5012906;28;20057;-67
2022/05/05 06:09:46;;;;;;;13.98;7.45;;;;;;;;;;5013636;28;20451;-68
2022/05/05 06:12:11;;;;;;;12.52;7.50;;;;;;;;;;5012752;28;20410;-68
2022/05/05 06:14:37;;;;;;;13.20;7.45;;;;;;;;;;5013764;28;20076;-68
2022/05/05 06:17:02;;;;;;;14.77;7.78;;;;;;;;;;5013420;28;20484;-68
2022/05/05 06:19:28;;;;;;;13.43;7.45;;;;;;;;;;5009464;28;20026;-69
2022/05/05 06:21:53;;;;;;;13.88;7.60;;;;;;;;;;5013562;28;20465;-69
2022/05/05 06:24:18;;;;;;;19.65;7.80;;;;;;;;;;5012684;28;20037;-69
2022/05/05 06:26:44;;;;;;;15.82;7.80;;;;;;;;;;5013543;28;20021;-68
2022/05/05 06:29:09;;;;;;;18.27;7.82;;;;;;;;;;5012590;28;20106;-68
2022/05/05 06:31:35;;;;;;;17.05;7.85;;;;;;;;;;5008163;28;20037;-67
2022/05/05 06:34:00;;;;;;;15.18;7.53;;;;;;;;;;5011576;28;20419;-68
2022/05/05 06:36:25;;;;;;;15.05;8.02;;;;;;;;;;5012202;28;20106;-68
2022/05/05 06:38:52;;;;;;;15.25;7.90;;;;;;;;;;5013173;28;20049;-68
2022/05/05 06:41:18;;;;;;;16.15;8.27;;;;;;;;;;5012298;28;20530;-69
2022/05/05 06:43:43;;;;;;;15.27;7.82;;;;;;;;;;5012326;28;20164;-68
2022/05/05 06:46:08;;;;;;;13.70;7.22;;;;;;;;;;4994187;28;20034;-68
2022/05/05 06:48:34;;;;;;;16.58;8.00;;;;;;;;;;5011505;28;20083;-67
2022/05/05 06:50:59;;;;;;;19.27;8.30;;;;;;;;;;5013001;28;20037;-70
2022/05/05 06:53:25;;;;;;;16.30;7.78;;;;;;;;;;5012111;28;20041;-68
2022/05/05 06:55:50;;;;;;;15.13;7.70;;;;;;;;;;5012664;28;20489;-68
2022/05/05 06:58:16;;;;;;;18.45;7.68;;;;;;;;;;5012128;28;20030;-68
2022/05/05 07:03:25;;;;;;;17.20;7.40;;;;;;;;;;5009682;28;20112;-69
2022/05/05 07:05:51;;;;;;;14.73;7.15;;;;;;;;;;5011917;28;20058;-69
2022/05/05 07:08:16;;;;;;;11.25;6.93;;;;;;;;;;5011953;28;20030;-68
2022/05/05 07:10:54;;;;;;;16.75;6.75;;;;;;;;;;5012520;28;20038;-68
2022/05/05 07:13:21;;;;;;;13.73;6.82;;;;;;;;;;4994349;28;20054;-68
2022/05/05 07:15:46;;;;;;;10.32;6.38;;;;;;;;;;5010954;28;20041;-68
2022/05/05 07:18:12;;;;;;;12.20;6.72;;;;;;;;;;5008877;28;20034;-68
2022/05/05 07:20:37;;;;;;;12.20;6.93;;;;;;;;;;5011698;28;20069;-68
2022/05/05 07:23:04;;;;;;;12.98;6.40;;;;;;;;;;5012567;28;20042;-69
2022/05/05 07:25:31;;;;;;;13.40;6.28;;;;;;;;;;5011563;28;20062;-68
2022/05/05 07:27:57;;;;;;;12.30;6.63;;;;;;;;;;5012397;28;20038;-68
2022/05/05 07:30:23;;;;;;;13.32;6.65;;;;;;;;;;5010298;28;20456;-69
2022/05/05 07:32:49;;;;;;;14.80;6.05;;;;;;;;;;4989899;28;20038;-68
2022/05/05 07:35:15;;;;;;;15.13;6.18;;;;;;;;;;5008604;28;20444;-67
2022/05/05 07:37:40;;;;;;;15.57;7.03;;;;;;;;;;5012205;28;20374;-69
2022/05/05 07:40:07;;;;;;;14.18;6.93;;;;;;;;;;5012174;28;20033;-69
2022/05/05 07:42:33;;;;;;;14.68;6.20;;;;;;;;;;5011424;28;20103;-68
2022/05/05 07:44:58;;;;;;;13.45;6.65;;;;;;;;;;5001775;28;20034;-68
2022/05/05 07:47:25;;;;;;;15.45;7.03;;;;;;;;;;4992061;28;20459;-68
2022/05/05 07:49:50;;;;;;;16.30;7.30;;;;;;;;;;4999240;28;20431;-68
2022/05/05 07:52:16;;;;;;;16.90;6.80;;;;;;;;;;4993697;28;20133;-66
2022/05/05 07:54:44;;;;;;;20.83;6.82;;;;;;;;;;5012357;28;20084;-69
2022/05/05 07:57:12;;;;;;;22.92;6.95;;;;;;;;;;5012174;28;20037;-68
2022/05/05 07:59:38;;;;;;;17.65;7.18;;;;;;;;;;5010358;28;20038;-68
2022/05/05 08:02:08;;;;;;;13.07;6.82;;;;;;;;;;4993511;28;20037;-68
2022/05/05 08:04:33;;;;;;;11.82;6.63;;;;;;;;;;5009521;28;20634;-68
2022/05/05 08:06:59;;;;;;;16.83;6.97;;;;;;;;;;5010419;28;20125;-68
2022/05/05 08:09:30;;;;;;;16.48;7.10;;;;;;;;;;5014220;28;20026;-68
2022/05/05 08:11:55;;;;;;;16.10;7.25;;;;;;;;;;5015899;28;20493;-68
2022/05/05 08:14:21;;;;;;;17.90;7.47;;;;;;;;;;4994293;28;20037;-68
2022/05/05 08:16:46;;;;;;;16.20;7.63;;;;;;;;;;5015764;28;20065;-68
2022/05/05 08:19:11;;;;;;;16.35;7.45;;;;;;;;;;5014580;28;20032;-69
2022/05/05 08:21:37;;;;;;;19.83;7.90;;;;;;;;;;5012838;28;20284;-68
2022/05/05 08:29:30;;;;;;;13.63;6.97;;;;;;;;;;5014022;28;20048;-67
2022/05/05 08:31:56;;;;;;;19.23;6.80;;;;;;;;;;5014947;28;20382;-68
2022/05/05 08:34:22;;;;;;;13.20;6.50;;;;;;;;;;5013492;28;20179;-67
2022/05/05 08:36:47;;;;;;;15.52;6.95;;;;;;;;;;5014828;28;20434;-68
2022/05/05 08:39:12;;;;;;;16.20;6.30;;;;;;;;;;5014177;28;20038;-68
2022/05/05 08:41:39;;;;;;;11.57;6.20;;;;;;;;;;5014260;28;20073;-69
2022/05/05 08:44:04;;;;;;;13.38;6.00;;;;;;;;;;5014512;28;20034;-68
2022/05/05 08:46:33;;;;;;;11.77;6.03;;;;;;;;;;5011504;28;20485;-68
2022/05/05 08:49:05;;;;;;;15.60;7.25;;;;;;;;;;5013712;28;20438;-69
2022/05/05 08:51:52;;;;;;;14.23;5.90;;;;;;;;;;5014510;28;20034;-68
2022/05/05 08:54:21;;;;;;;11.40;6.18;;;;;;;;;;5012272;28;20037;-67
2022/05/05 08:56:48;;;;;;;14.20;7.15;;;;;;;;;;4997488;28;20030;-67
2022/05/05 08:59:14;;;;;;;10.90;6.55;;;;;;;;;;5014061;28;20045;-69
2022/05/05 09:01:43;;;;;;;15.48;7.05;;;;;;;;;;5014277;28;20034;-69
2022/05/05 09:04:09;;;;;;;15.57;7.00;;;;;;;;;;5014642;28;20441;-67
2022/05/05 09:06:46;;;;;;;16.60;7.72;;;;;;;;;;5014036;28;20045;-69
2022/05/05 09:09:30;;;;;;;23.23;9.63;;;;;;;;;;4998708;28;20037;-67
2022/05/05 09:12:07;;;;;;;18.42;9.38;;;;;;;;;;5013726;28;20449;-68
2022/05/05 09:14:44;;;;;;;20.48;8.73;;;;;;;;;;5010873;28;20109;-67
2022/05/05 09:17:11;;;;;;;18.08;9.80;;;;;;;;;;4996838;28;20034;-67
2022/05/05 09:19:38;;;;;;;20.65;10.30;;;;;;;;;;5004539;28;20106;-69
2022/05/05 09:22:10;;;;;;;19.48;9.50;;;;;;;;;;5006973;28;20045;-68
2022/05/05 09:24:36;;;;;;;16.33;8.60;;;;;;;;;;5013487;28;20033;-67
2022/05/05 09:27:18;;;;;;;18.30;9.65;;;;;;;;;;5014929;28;20034;-68
2022/05/05 09:30:02;;;;;;;19.00;9.65;;;;;;;;;;5013435;28;20105;-67
2022/05/05 09:32:34;;;;;;;17.83;9.88;;;;;;;;;;4996930;28;20065;-67
2022/05/05 09:35:03;;;;;;;17.73;9.93;;;;;;;;;;4994711;28;20108;-69
2022/05/05 09:37:29;;;;;;;19.60;9.43;;;;;;;;;;4994107;28;20467;-69
2022/05/05 09:39:56;;;;;;;20.08;10.27;;;;;;;;;;4995858;28;20042;-69
2022/05/05 09:42:43;;;;;;;21.17;9.70;;;;;;;;;;5012927;28;20058;-66
2022/05/05 09:45:13;;;;;;;16.75;9.15;;;;;;;;;;5013085;28;20048;-69
2022/05/05 09:47:41;;;;;;;22.25;9.50;;;;;;;;;;4990730;28;20034;-67
2022/05/05 09:50:07;;;;;;;18.83;9.40;;;;;;;;;;4994733;28;20467;-69
2022/05/05 09:58:08;;;;;;;17.20;10.30;;;;;;;;;;4994360;28;20080;-67
2022/05/05 10:01:21;;;;;;;18.65;10.13;;;;;;;;;;5011171;28;20034;-67
2022/05/05 10:06:41;;;;;;;19.17;10.07;;;;;;;;;;5012030;28;20037;-69
2022/05/05 10:09:09;;;;;;;13.27;7.85;;;;;;;;;;5012669;28;20046;-68
2022/05/05 10:11:35;;;;;;;14.60;8.63;;;;;;;;;;5012690;28;20033;-69
2022/05/05 10:14:03;;;;;;;17.25;9.00;;;;;;;;;;5011906;28;20694;-68
2022/05/05 10:16:31;;;;;;;13.55;7.85;;;;;;;;;;4995170;28;20423;-69
2022/05/05 10:18:57;;;;;;;12.82;7.50;;;;;;;;;;5013753;28;20084;-68
2022/05/05 10:21:34;;;;;;;15.05;7.63;;;;;;;;;;5012969;28;20106;-68
2022/05/05 10:24:32;;;;;;;14.30;7.68;;;;;;;;;;5012462;28;20038;-68
2022/05/05 10:26:59;;;;;;;12.63;7.28;;;;;;;;;;5004278;28;20060;-68
2022/05/05 10:29:31;;;;;;;12.18;7.43;;;;;;;;;;5011461;28;20386;-68
2022/05/05 10:32:11;;;;;;;12.93;6.75;;;;;;;;;;5012964;28;20040;-68
2022/05/05 10:34:41;;;;;;;13.82;7.70;;;;;;;;;;5012487;28;20037;-67
2022/05/05 10:37:09;;;;;;;11.23;6.00;;;;;;;;;;5012247;28;20034;-68
2022/05/05 10:39:44;;;;;;;12.85;6.50;;;;;;;;;;5012472;28;20033;-68
2022/05/05 10:42:33;;;;;;;9.80;6.25;;;;;;;;;;5012147;28;20050;-68
2022/05/05 10:45:12;;;;;;;10.10;6.03;;;;;;;;;;5004635;28;20103;-68
2022/05/05 10:47:46;;;;;;;9.55;5.38;;;;;;;;;;5011557;28;20038;-68
2022/05/05 10:53:41;;;;;;;9.60;5.75;;;;;;;;;;5012066;28;20103;-67
2022/05/05 10:56:27;;;;;;;10.15;5.93;;;;;;;;;;5012850;28;20467;-68
2022/05/05 10:59:08;;;;;;;11.07;5.68;;;;;;;;;;5012843;28;20117;-68
2022/05/05 11:01:45;;;;;;;9.75;5.15;;;;;;;;;;5007065;28;20061;-68
2022/05/05 11:04:24;;;;;;;8.27;5.50;;;;;;;;;;5010315;28;20485;-68
2022/05/05 11:07:29;;;;;;;9.27;5.10;;;;;;;;;;5012138;28;20029;-68
2022/05/05 11:09:54;;;;;;;8.45;4.70;;;;;;;;;;5012600;28;20117;-69
2022/05/05 11:12:22;;;;;;;8.70;4.35;;;;;;;;;;5010974;28;20112;-70
2022/05/05 11:23:50;;;;;;;7.93;5.07;;;;;;;;;;5011676;28;20040;-68
2022/05/05 11:26:17;;;;;;;10.73;5.57;;;;;;;;;;5012486;28;20481;-70
2022/05/05 11:28:44;;;;;;;14.70;5.97;;;;;;;;;;5011565;28;20037;-68
2022/05/05 11:31:19;;;;;;;14.57;5.85;;;;;;;;;;5011219;28;20038;-69
2022/05/05 11:33:49;;;;;;;10.45;6.10;;;;;;;;;;5010553;28;20033;-68
2022/05/05 11:36:15;;;;;;;10.65;5.70;;;;;;;;;;4994846;28;20080;-68
2022/05/05 11:38:44;;;;;;;7.85;4.78;;;;;;;;;;5011412;28;20431;-68
2022/05/05 11:41:09;;;;;;;8.63;4.60;;;;;;;;;;5011806;28;20085;-68
2022/05/05 11:46:20;;;;;;;11.48;5.20;;;;;;;;;;5011237;28;20433;-68
2022/05/05 11:48:54;;;;;;;8.27;4.70;;;;;;;;;;5009239;28;20080;-68
2022/05/05 11:51:24;;;;;;;9.30;4.85;;;;;;;;;;5011864;28;20124;-68
2022/05/05 11:54:01;;;;;;;7.95;5.07;;;;;;;;;;5010487;28;20223;-68
2022/05/05 11:56:29;;;;;;;8.43;5.03;;;;;;;;;;5012027;28;20026;-69
2022/05/05 12:01:42;;;;;;;7.93;4.60;;;;;;;;;;4994726;28;20092;-68
2022/05/05 12:04:10;;;;;;;7.32;4.45;;;;;;;;;;5010996;28;20474;-68
2022/05/05 12:06:37;;;;;;;7.53;4.63;;;;;;;;;;5011195;28;20034;-68
2022/05/05 12:09:04;;;;;;;7.20;4.55;;;;;;;;;;5012039;28;20363;-69
2022/05/05 12:11:30;;;;;;;8.48;4.75;;;;;;;;;;5011835;28;20037;-67
2022/05/05 12:14:07;;;;;;;14.75;6.18;;;;;;;;;;5009933;28;20026;-69
2022/05/05 12:16:34;;;;;;;7.45;5.07;;;;;;;;;;5011188;28;20034;-68
2022/05/05 12:18:59;;;;;;;8.48;5.35;;;;;;;;;;4995566;28;20038;-68
2022/05/05 12:21:26;;;;;;;9.40;6.32;;;;;;;;;;4992402;28;20037;-68
2022/05/05 12:24:02;;;;;;;11.07;5.95;;;;;;;;;;5011163;28;20026;-69
2022/05/05 12:26:34;;;;;;;11.88;6.25;;;;;;;;;;4994106;28;20056;-69
2022/05/05 12:29:00;;;;;;;9.40;5.40;;;;;;;;;;5012022;28;20072;-70
2022/05/05 12:31:29;;;;;;;10.00;5.53;;;;;;;;;;5010653;28;20058;-69
2022/05/05 12:33:56;;;;;;;8.35;5.70;;;;;;;;;;5010146;28;20044;-70
2022/05/05 12:36:28;;;;;;;11.43;5.70;;;;;;;;;;5010954;28;20485;-70
2022/05/05 12:39:12;;;;;;;10.50;5.82;;;;;;;;;;5010881;28;20065;-70
2022/05/05 12:41:55;;;;;;;11.93;6.28;;;;;;;;;;5010443;28;20125;-68
2022/05/05 12:44:20;;;;;;;10.90;6.57;;;;;;;;;;5011622;28;20022;-70
2022/05/05 12:46:52;;;;;;;10.45;5.75;;;;;;;;;;5010129;28;20068;-68
2022/05/05 12:49:37;;;;;;;11.95;5.90;;;;;;;;;;5008786;28;20045;-69
2022/05/05 12:52:04;;;;;;;9.77;6.10;;;;;;;;;;5007602;28;20038;-68
2022/05/05 12:59:57;;;;;;;10.68;5.57;;;;;;;;;;5002174;28;20500;-68
2022/05/05 13:02:23;;;;;;;10.20;6.03;;;;;;;;;;5013277;28;20113;-68
2022/05/05 13:04:48;;;;;;;10.95;6.40;;;;;;;;;;5013398;28;20037;-68
2022/05/05 13:07:14;;;;;;;10.10;6.22;;;;;;;;;;5014737;28;20466;-68
2022/05/05 13:09:39;;;;;;;9.57;5.72;;;;;;;;;;5014065;28;20034;-68
2022/05/05 13:12:06;;;;;;;8.50;5.97;;;;;;;;;;5014485;28;20034;-68
2022/05/05 13:14:31;;;;;;;8.55;5.65;;;;;;;;;;5012886;28;20084;-68
2022/05/05 13:16:57;;;;;;;12.40;5.28;;;;;;;;;;5013262;28;20025;-69
2022/05/05 13:19:24;;;;;;;9.32;5.30;;;;;;;;;;5014600;28;20107;-70
2022/05/05 13:21:49;;;;;;;10.40;5.22;;;;;;;;;;5012865;28;20057;-69
2022/05/05 13:24:15;;;;;;;9.48;5.13;;;;;;;;;;4996318;28;20057;-68
2022/05/05 13:26:43;;;;;;;8.15;5.18;;;;;;;;;;5013827;28;20022;-68
2022/05/05 13:29:09;;;;;;;8.18;5.43;;;;;;;;;;5014324;28;20036;-69
2022/05/05 13:31:35;;;;;;;10.73;5.00;;;;;;;;;;5014010;28;20034;-67
2022/05/05 13:34:00;;;;;;;7.25;4.75;;;;;;;;;;5013284;28;20083;-68
2022/05/05 13:36:26;;;;;;;7.45;4.88;;;;;;;;;;5014298;28;20061;-70
2022/05/05 13:38:52;;;;;;;12.70;6.00;;;;;;;;;;5011803;28;20061;-70
2022/05/05 13:41:17;;;;;;;9.40;5.38;;;;;;;;;;5013828;28;20042;-69
2022/05/05 13:43:43;;;;;;;8.55;4.85;;;;;;;;;;5013401;28;20041;-68
2022/05/05 13:46:09;;;;;;;9.00;4.95;;;;;;;;;;5012993;28;20022;-69
2022/05/05 13:48:36;;;;;;;7.30;4.80;;;;;;;;;;5011662;28;20034;-66
2022/05/05 13:51:03;;;;;;;7.57;4.82;;;;;;;;;;5013720;28;20037;-70
2022/05/05 13:53:29;;;;;;;7.32;4.80;;;;;;;;;;5012522;28;20041;-70
2022/05/05 13:55:55;;;;;;;10.48;5.05;;;;;;;;;;4990539;28;20087;-70
2022/05/05 13:58:20;;;;;;;8.07;4.72;;;;;;;;;;4994430;28;20125;-70
2022/05/05 14:00:46;;;;;;;10.70;5.20;;;;;;;;;;4993408;28;20022;-69
2022/05/05 14:03:12;;;;;;;12.35;5.30;;;;;;;;;;5002549;28;20510;-70
2022/05/05 14:05:37;;;;;;;8.02;4.75;;;;;;;;;;5005159;28;20037;-67
2022/05/05 14:13:31;;;;;;;7.85;4.90;;;;;;;;;;5013846;28;20045;-69
2022/05/05 14:15:56;;;;;;;10.32;5.13;;;;;;;;;;5012719;28;20030;-68
2022/05/05 14:18:23;;;;;;;10.65;5.00;;;;;;;;;;5012119;28;20034;-68
2022/05/05 14:20:48;;;;;;;9.57;4.97;;;;;;;;;;5011951;28;20097;-68
2022/05/05 14:23:14;;;;;;;9.35;4.43;;;;;;;;;;5010472;28;20109;-69
2022/05/05 14:25:39;;;;;;;6.93;4.20;;;;;;;;;;5011522;28;20108;-67
2022/05/05 14:28:05;;;;;;;9.25;4.75;;;;;;;;;;5012710;28;20034;-68
2022/05/05 14:30:30;;;;;;;9.52;4.85;;;;;;;;;;4995480;28;20030;-69
2022/05/05 14:32:56;;;;;;;9.15;4.57;;;;;;;;;;5012043;28;20095;-69
2022/05/05 14:35:21;;;;;;;9.18;5.00;;;;;;;;;;5013156;28;20490;-68
2022/05/05 14:37:47;;;;;;;7.10;4.38;;;;;;;;;;5009013;28;20049;-68
2022/05/05 14:40:13;;;;;;;6.80;4.82;;;;;;;;;;5012861;28;20034;-70
2022/05/05 14:42:38;;;;;;;6.57;4.38;;;;;;;;;;5012057;28;20054;-68
2022/05/05 14:45:04;;;;;;;7.63;4.60;;;;;;;;;;5013095;28;20109;-69
2022/05/05 14:47:30;;;;;;;8.25;4.00;;;;;;;;;;5012371;28;20057;-69
2022/05/05 14:49:55;;;;;;;7.05;4.07;;;;;;;;;;5012529;28;20068;-68
2022/05/05 14:52:21;;;;;;;6.95;3.97;;;;;;;;;;5010681;28;20381;-69
2022/05/05 14:54:47;;;;;;;7.53;3.70;;;;;;;;;;4994468;28;20463;-68
2022/05/05 14:57:14;;;;;;;5.82;3.90;;;;;;;;;;5012130;28;20112;-70
2022/05/05 14:59:41;;;;;;;7.82;4.10;;;;;;;;;;5003094;28;20486;-67
2022/05/05 15:02:07;;;;;;;7.60;4.13;;;;;;;;;;4993018;28;20034;-68
2022/05/05 15:04:33;;;;;;;10.32;3.80;;;;;;;;;;4975648;28;20034;-70
2022/05/05 15:06:59;;;;;;;14.18;4.10;;;;;;;;;;4988996;28;20169;-68
2022/05/05 15:09:24;;;;;;;8.63;3.75;;;;;;;;;;4995124;28;20087;-69
2022/05/05 15:11:50;;;;;;;6.65;3.63;;;;;;;;;;5010831;28;20064;-68
2022/05/05 15:14:16;;;;;;;6.43;3.50;;;;;;;;;;5011699;28;20469;-68
2022/05/05 15:16:42;;;;;;;6.90;3.40;;;;;;;;;;5011888;28;20026;-67
2022/05/05 15:19:07;;;;;;;7.30;3.88;;;;;;;;;;5010662;28;20077;-68
2022/05/05 15:21:32;;;;;;;9.05;3.72;;;;;;;;;;5011424;28;20057;-68
2022/05/05 15:23:58;;;;;;;9.80;4.13;;;;;;;;;;5011535;28;20037;-68
2022/05/05 15:26:24;;;;;;;6.82;3.72;;;;;;;;;;5012469;28;20033;-69
2022/05/05 15:28:50;;;;;;;6.53;3.63;;;;;;;;;;5010091;28;20092;-68
2022/05/05 15:31:17;;;;;;;7.82;3.60;;;;;;;;;;5012314;28;20061;-68
2022/05/05 15:33:44;;;;;;;6.65;3.53;;;;;;;;;;5011771;28;20393;-67